Time;durP1;ratioP1;P1;durP2;ratioP2;P2;SDS_P1;SDS_P2;PMS_P1;PMS_P2;Temp;Humidity;BMP_temperature;BMP_pressure;BME280_temperature;BME280_humidity;BME280_pressure;Samples;Min_cycle;Max_cycle;Signal;HPM_P1;HPM_P2
2022/03/07 00:02:28;;;;;;;25.40;16.70;;;;;;;-2.64;65.93;96994.11;107578;1273;48745;-73
2022/03/07 00:04:59;;;;;;;24.60;16.50;;;;;;;-2.65;65.78;96993.38;107586;1272;41498;-74
2022/03/07 00:07:30;;;;;;;26.70;17.20;;;;;;;-2.66;65.94;96994.85;107515;1273;40269;-73
2022/03/07 00:10:00;;;;;;;25.00;16.70;;;;;;;-2.66;65.92;96992.29;107571;1273;42363;-74
2022/03/07 00:12:31;;;;;;;26.80;17.30;;;;;;;-2.67;65.76;96989.11;107552;1273;39725;-74
2022/03/07 00:15:02;;;;;;;26.30;17.30;;;;;;;-2.69;65.71;96988.48;107618;1273;31245;-74
2022/03/07 00:17:33;;;;;;;28.10;18.00;;;;;;;-2.70;65.92;96985.97;107559;1273;60912;-73
2022/03/07 00:20:06;;;;;;;28.70;17.70;;;;;;;-2.70;65.81;96986.88;107460;1274;42301;-74
2022/03/07 00:22:37;;;;;;;27.10;18.30;;;;;;;-2.72;65.83;96985.52;107574;1273;32372;-74
2022/03/07 00:25:09;;;;;;;25.60;18.00;;;;;;;-2.72;65.99;96988.10;107574;1274;33424;-73
2022/03/07 00:27:41;;;;;;;24.90;17.30;;;;;;;-2.73;66.15;96985.27;107630;1274;30257;-74
2022/03/07 00:30:15;;;;;;;26.40;17.00;;;;;;;-2.73;66.20;96981.98;107575;1273;29105;-73
2022/03/07 00:32:46;;;;;;;23.90;16.50;;;;;;;-2.72;66.10;96981.48;107576;1273;43465;-73
2022/03/07 00:35:18;;;;;;;25.80;17.60;;;;;;;-2.71;66.19;96982.48;107568;1273;32965;-74
2022/03/07 00:37:48;;;;;;;25.20;16.70;;;;;;;-2.72;66.31;96984.80;107566;1273;40466;-73
2022/03/07 00:40:19;;;;;;;24.20;16.90;;;;;;;-2.74;66.13;96980.35;107553;1273;42490;-74
2022/03/07 00:42:50;;;;;;;28.80;18.10;;;;;;;-2.76;66.13;96983.21;107551;1273;31204;-73
2022/03/07 00:45:21;;;;;;;27.90;17.70;;;;;;;-2.79;66.17;96979.67;107560;1273;77176;-74
2022/03/07 00:47:52;;;;;;;25.90;16.40;;;;;;;-2.81;66.02;96977.97;107589;1274;30789;-74
2022/03/07 00:50:23;;;;;;;28.30;17.50;;;;;;;-2.82;66.29;96979.85;107544;1273;34608;-74
2022/03/07 00:52:54;;;;;;;26.70;17.80;;;;;;;-2.83;66.22;96979.05;107572;1273;66214;-74
2022/03/07 00:55:25;;;;;;;26.80;18.40;;;;;;;-2.84;66.46;96982.44;107480;1274;42958;-74
2022/03/07 00:57:56;;;;;;;26.00;17.80;;;;;;;-2.83;66.52;96983.60;107565;1273;40487;-74
2022/03/07 01:00:27;;;;;;;26.60;18.10;;;;;;;-2.84;66.35;96976.84;107594;1273;41146;-74
2022/03/07 01:02:57;;;;;;;28.00;17.80;;;;;;;-2.87;66.44;96973.47;107548;1273;56962;-74
2022/03/07 01:05:28;;;;;;;26.80;17.20;;;;;;;-2.87;66.51;96969.43;107574;1273;28366;-74
2022/03/07 01:07:59;;;;;;;26.30;17.80;;;;;;;-2.89;66.41;96968.23;107597;1273;34091;-73
2022/03/07 01:10:30;;;;;;;26.60;16.70;;;;;;;-2.90;66.28;96970.41;107601;1273;30164;-73
2022/03/07 01:13:01;;;;;;;25.70;17.30;;;;;;;-2.91;66.42;96965.77;107490;1273;78819;-74
2022/03/07 01:15:32;;;;;;;25.00;16.80;;;;;;;-2.91;66.37;96963.66;107602;1273;42222;-74
2022/03/07 01:18:04;;;;;;;29.60;19.30;;;;;;;-2.92;66.53;96965.05;107557;1273;41917;-74
2022/03/07 01:20:35;;;;;;;32.10;20.60;;;;;;;-2.96;66.76;96965.56;107697;1273;32442;-74
2022/03/07 01:23:06;;;;;;;31.60;20.00;;;;;;;-3.00;67.18;96958.81;107534;1273;53243;-74
2022/03/07 01:25:37;;;;;;;30.80;19.40;;;;;;;-3.03;67.35;96958.14;107587;1273;35900;-74
2022/03/07 01:28:08;;;;;;;31.10;20.10;;;;;;;-3.06;67.39;96956.45;107581;1271;47203;-74
2022/03/07 01:30:39;;;;;;;31.30;19.80;;;;;;;-3.09;67.42;96951.98;107534;1273;46898;-74
2022/03/07 01:33:10;;;;;;;27.50;19.30;;;;;;;-3.11;67.38;96949.88;107514;1273;43514;-73
2022/03/07 01:35:41;;;;;;;29.30;19.30;;;;;;;-3.13;67.62;96951.21;107572;1271;45327;-73
2022/03/07 01:38:12;;;;;;;32.30;20.30;;;;;;;-3.14;67.92;96949.41;107598;1273;29981;-74
2022/03/07 01:40:45;;;;;;;30.20;19.20;;;;;;;-3.15;67.97;96946.33;107617;1273;42156;-74
2022/03/07 01:43:16;;;;;;;31.90;21.10;;;;;;;-3.15;68.28;96945.29;107653;1272;52962;-74
2022/03/07 01:45:47;;;;;;;29.00;19.30;;;;;;;-3.14;68.45;96945.10;107627;1272;42310;-74
2022/03/07 01:48:18;;;;;;;32.30;20.90;;;;;;;-3.14;68.31;96944.23;107587;1271;39961;-74
2022/03/07 01:50:49;;;;;;;27.40;19.30;;;;;;;-3.14;68.36;96944.23;107604;1273;42725;-74
2022/03/07 01:53:22;;;;;;;31.20;19.90;;;;;;;-3.14;68.53;96947.21;107573;1273;31067;-74
2022/03/07 01:55:55;;;;;;;31.70;20.60;;;;;;;-3.15;68.63;96948.04;107617;1273;32888;-74
2022/03/07 01:58:26;;;;;;;29.30;19.50;;;;;;;-3.14;68.72;96946.17;107553;1273;32600;-73
2022/03/07 02:00:57;;;;;;;31.20;20.30;;;;;;;-3.14;68.89;96943.67;107489;1273;42189;-74
2022/03/07 02:03:28;;;;;;;31.40;21.00;;;;;;;-3.12;69.24;96943.64;107544;1272;44592;-73
2022/03/07 02:06:00;;;;;;;30.50;20.30;;;;;;;-3.13;69.64;96943.95;107423;1273;229228;-74
2022/03/07 02:08:31;;;;;;;29.70;18.50;;;;;;;-3.16;70.02;96944.29;107610;1273;43875;-74
2022/03/07 02:11:03;;;;;;;31.80;21.30;;;;;;;-3.20;70.62;96941.54;107605;1273;36548;-74
2022/03/07 02:13:35;;;;;;;32.00;18.40;;;;;;;-3.24;70.94;96937.58;107543;1273;54900;-73
2022/03/07 02:16:07;;;;;;;37.10;25.20;;;;;;;-3.31;71.37;96947.20;107578;1273;49996;-74
2022/03/07 02:18:38;;;;;;;36.70;24.60;;;;;;;-3.34;71.49;96945.25;107514;1273;75445;-74
2022/03/07 02:21:14;;;;;;;36.60;23.60;;;;;;;-3.32;71.59;96942.99;107555;1273;46382;-74
2022/03/07 02:23:45;;;;;;;34.10;22.40;;;;;;;-3.29;71.87;96943.08;107630;1272;42446;-73
2022/03/07 02:26:18;;;;;;;36.00;23.30;;;;;;;-3.29;71.94;96940.16;107617;1272;41200;-73
2022/03/07 02:28:49;;;;;;;34.90;22.50;;;;;;;-3.32;72.14;96936.58;107571;1273;39664;-74
2022/03/07 02:31:22;;;;;;;39.00;23.50;;;;;;;-3.36;72.00;96933.75;107517;1272;48352;-74
2022/03/07 02:33:53;;;;;;;36.30;23.50;;;;;;;-3.38;72.24;96930.36;107617;1273;36212;-74
2022/03/07 02:36:27;;;;;;;34.40;23.50;;;;;;;-3.39;72.52;96927.43;107590;1273;43791;-74
2022/03/07 02:38:58;;;;;;;37.90;25.90;;;;;;;-3.43;72.96;96926.71;107555;1273;45841;-74
2022/03/07 02:41:28;;;;;;;35.00;25.00;;;;;;;-3.42;72.91;96917.39;107619;1273;38253;-74
2022/03/07 02:44:00;;;;;;;36.40;26.10;;;;;;;-3.38;73.21;96918.41;107533;1273;42217;-74
2022/03/07 02:46:31;;;;;;;37.40;24.60;;;;;;;-3.35;73.26;96921.55;107623;1273;32799;-73
2022/03/07 02:49:02;;;;;;;37.90;24.20;;;;;;;-3.34;73.34;96921.41;107599;1273;40238;-74
2022/03/07 02:51:33;;;;;;;37.80;25.50;;;;;;;-3.38;73.52;96914.08;107511;1273;40554;-74
2022/03/07 02:54:04;;;;;;;38.50;25.90;;;;;;;-3.38;73.67;96919.65;107589;1273;47216;-74
2022/03/07 02:56:44;;;;;;;37.40;23.50;;;;;;;-3.38;73.75;96915.55;107560;1273;80671;-74
2022/03/07 02:59:16;;;;;;;35.10;25.50;;;;;;;-3.41;73.88;96917.28;107500;1274;95885;-74
2022/03/07 03:01:48;;;;;;;39.30;26.00;;;;;;;-3.43;73.88;96914.04;107584;1274;42305;-74
2022/03/07 03:04:19;;;;;;;34.90;23.40;;;;;;;-3.41;74.02;96910.54;107629;1273;41576;-74
2022/03/07 03:06:50;;;;;;;34.60;25.20;;;;;;;-3.41;74.33;96913.61;107554;1273;40169;-74
2022/03/07 03:09:21;;;;;;;35.10;24.00;;;;;;;-3.44;74.33;96908.64;107553;1273;44239;-74
2022/03/07 03:11:52;;;;;;;38.80;26.00;;;;;;;-3.45;74.56;96906.73;107587;1273;33979;-74
2022/03/07 03:14:23;;;;;;;39.40;24.80;;;;;;;-3.47;74.71;96904.15;107557;1273;45015;-74
2022/03/07 03:16:54;;;;;;;35.70;24.20;;;;;;;-3.47;74.92;96904.15;107495;1273;47927;-74
2022/03/07 03:19:25;;;;;;;36.80;26.20;;;;;;;-3.46;75.00;96904.60;107578;1273;40330;-73
2022/03/07 03:21:56;;;;;;;39.00;25.00;;;;;;;-3.47;75.04;96909.82;107567;1273;46691;-74
2022/03/07 03:24:26;;;;;;;36.90;23.80;;;;;;;-3.46;75.29;96910.63;107516;1273;31297;-74
2022/03/07 03:26:57;;;;;;;38.40;25.70;;;;;;;-3.46;75.40;96906.51;107569;1273;36340;-74
2022/03/07 03:29:28;;;;;;;39.00;26.80;;;;;;;-3.50;75.55;96908.55;107534;1273;37937;-74
2022/03/07 03:31:59;;;;;;;38.60;25.70;;;;;;;-3.51;75.76;96910.21;107493;1273;29388;-74
2022/03/07 03:34:31;;;;;;;35.30;24.10;;;;;;;-3.51;75.96;96908.33;107569;1273;37703;-74
2022/03/07 03:37:01;;;;;;;36.60;25.00;;;;;;;-3.52;76.25;96909.59;107525;1273;39352;-74
2022/03/07 03:39:32;;;;;;;34.20;22.70;;;;;;;-3.55;76.45;96910.11;107533;1274;37814;-74
2022/03/07 03:42:04;;;;;;;35.50;23.10;;;;;;;-3.60;76.41;96917.11;107559;1273;40423;-74
2022/03/07 03:44:35;;;;;;;32.90;23.50;;;;;;;-3.65;76.26;96921.30;107596;1273;31624;-74
2022/03/07 03:47:06;;;;;;;35.00;23.60;;;;;;;-3.69;76.29;96922.10;107549;1273;43792;-73
2022/03/07 03:49:37;;;;;;;36.90;23.90;;;;;;;-3.71;76.38;96919.64;107587;1273;43503;-74
2022/03/07 03:52:09;;;;;;;36.00;24.30;;;;;;;-3.76;76.17;96923.42;107638;1273;28858;-74
2022/03/07 03:54:40;;;;;;;38.10;24.50;;;;;;;-3.81;75.98;96915.09;107550;1273;42306;-74
2022/03/07 03:57:11;;;;;;;31.50;23.00;;;;;;;-3.84;75.92;96918.93;107621;1273;32967;-74
2022/03/07 03:59:42;;;;;;;35.20;24.30;;;;;;;-3.86;75.81;96916.52;107601;1273;32164;-73
2022/03/07 04:02:13;;;;;;;34.90;23.60;;;;;;;-3.86;75.81;96922.40;107573;1272;42049;-74
2022/03/07 04:04:44;;;;;;;32.60;24.10;;;;;;;-3.89;75.51;96921.26;107676;1272;30677;-74
2022/03/07 04:07:15;;;;;;;35.60;25.00;;;;;;;-3.93;75.16;96924.33;107680;1273;39494;-74
2022/03/07 04:09:46;;;;;;;36.70;22.70;;;;;;;-3.95;75.25;96921.08;107651;1273;31860;-74
2022/03/07 04:12:17;;;;;;;30.90;22.80;;;;;;;-3.97;74.89;96919.04;107611;1273;42425;-73
2022/03/07 04:14:48;;;;;;;29.90;20.60;;;;;;;-3.96;75.00;96926.85;107599;1272;31285;-74
2022/03/07 04:17:19;;;;;;;35.50;23.30;;;;;;;-3.97;74.70;96927.00;107586;1273;28857;-74
2022/03/07 04:19:50;;;;;;;33.10;24.00;;;;;;;-3.96;74.76;96924.59;107612;1273;40533;-74
2022/03/07 04:22:21;;;;;;;36.80;25.40;;;;;;;-3.95;74.75;96924.66;107568;1272;31284;-74
2022/03/07 04:24:52;;;;;;;34.60;24.80;;;;;;;-3.95;74.87;96919.52;107641;1272;32481;-74
2022/03/07 04:27:24;;;;;;;34.70;24.50;;;;;;;-3.99;74.63;96920.61;107538;1273;41467;-73
2022/03/07 04:29:55;;;;;;;35.30;24.50;;;;;;;-4.01;74.82;96919.70;107582;1272;43391;-74
2022/03/07 04:32:26;;;;;;;34.40;24.30;;;;;;;-4.04;75.13;96916.48;107562;1273;32825;-74
2022/03/07 04:34:57;;;;;;;35.10;24.80;;;;;;;-4.09;75.39;96914.96;107552;1273;42216;-74
2022/03/07 04:37:29;;;;;;;36.30;23.70;;;;;;;-4.15;75.70;96909.15;107589;1272;45726;-74
2022/03/07 04:40:00;;;;;;;33.10;24.30;;;;;;;-4.18;75.58;96909.56;107555;1273;44282;-74
2022/03/07 04:42:31;;;;;;;36.00;25.10;;;;;;;-4.20;75.52;96907.42;107595;1273;39046;-74
2022/03/07 04:45:02;;;;;;;35.50;25.50;;;;;;;-4.22;75.47;96904.48;107564;1273;34422;-74
2022/03/07 04:47:33;;;;;;;28.60;18.70;;;;;;;-4.22;75.41;96907.99;107619;1273;42158;-74
2022/03/07 04:50:05;;;;;;;36.80;24.40;;;;;;;-4.28;75.94;96907.27;107618;1273;38332;-73
2022/03/07 04:52:37;;;;;;;26.40;18.20;;;;;;;-4.34;76.04;96904.40;107572;1273;40720;-74
2022/03/07 04:55:12;;;;;;;35.80;22.90;;;;;;;-4.34;75.91;96905.98;107443;1273;43861;-73
2022/03/07 04:57:44;;;;;;;32.80;22.10;;;;;;;-4.37;76.22;96906.22;107582;1274;39804;-73
2022/03/07 05:00:16;;;;;;;24.20;16.50;;;;;;;-4.39;76.16;96903.52;107499;1275;41085;-73
2022/03/07 05:02:47;;;;;;;33.20;20.60;;;;;;;-4.43;76.71;96910.75;107453;1275;42344;-74
2022/03/07 05:05:18;;;;;;;34.20;20.20;;;;;;;-4.46;76.89;96911.59;107448;1274;32147;-74
2022/03/07 05:07:49;;;;;;;36.90;23.10;;;;;;;-4.47;76.86;96911.92;107449;1274;32459;-74
2022/03/07 05:10:22;;;;;;;35.70;21.80;;;;;;;-4.48;77.39;96910.04;107388;1275;40574;-74
2022/03/07 05:12:53;;;;;;;37.10;24.20;;;;;;;-4.51;77.36;96911.17;107415;1274;54621;-74
2022/03/07 05:15:24;;;;;;;34.40;24.50;;;;;;;-4.52;77.37;96911.95;107362;1274;44212;-74
2022/03/07 05:17:55;;;;;;;35.40;22.70;;;;;;;-4.52;77.49;96914.55;107417;1275;38766;-74
2022/03/07 05:20:27;;;;;;;33.20;22.20;;;;;;;-4.53;77.52;96912.05;107370;1275;43558;-74
2022/03/07 05:22:58;;;;;;;35.80;23.30;;;;;;;-4.54;77.78;96917.38;107381;1274;42539;-74
2022/03/07 05:25:31;;;;;;;28.50;19.00;;;;;;;-4.55;77.92;96915.25;107441;1275;34326;-74
2022/03/07 05:28:02;;;;;;;36.80;25.10;;;;;;;-4.55;77.54;96919.20;107649;1274;41197;-73
2022/03/07 05:30:33;;;;;;;37.00;23.30;;;;;;;-4.52;77.35;96920.77;107377;1275;43302;-74
2022/03/07 05:33:04;;;;;;;29.20;18.20;;;;;;;-4.49;77.29;96920.45;107360;1274;50394;-74
2022/03/07 05:35:37;;;;;;;34.60;24.20;;;;;;;-4.49;77.06;96922.84;107358;1274;44026;-74
2022/03/07 05:38:09;;;;;;;37.40;25.50;;;;;;;-4.48;77.18;96927.77;107418;1275;42831;-73
2022/03/07 05:40:41;;;;;;;24.40;16.00;;;;;;;-4.45;77.12;96931.42;107358;1275;60079;-73
2022/03/07 05:43:12;;;;;;;40.40;25.80;;;;;;;-4.44;77.00;96932.86;107360;1274;42982;-73
2022/03/07 05:45:43;;;;;;;33.40;21.40;;;;;;;-4.42;76.76;96930.63;107528;1274;42968;-74
2022/03/07 05:48:14;;;;;;;33.80;23.10;;;;;;;-4.38;76.50;96929.64;107537;1274;42861;-73
2022/03/07 05:50:45;;;;;;;37.70;24.60;;;;;;;-4.35;76.46;96928.15;107482;1275;30347;-73
2022/03/07 05:53:21;;;;;;;29.50;21.00;;;;;;;-4.31;76.27;96922.98;107415;1273;42908;-73
2022/03/07 05:55:52;;;;;;;32.10;23.50;;;;;;;-4.27;76.03;96923.52;107560;1273;47126;-74
2022/03/07 05:58:23;;;;;;;37.10;24.70;;;;;;;-4.27;76.01;96926.35;107590;1273;39137;-73
2022/03/07 06:00:55;;;;;;;33.00;22.50;;;;;;;-4.29;75.92;96927.24;107562;1273;43394;-74
2022/03/07 06:03:26;;;;;;;26.90;17.40;;;;;;;-4.28;76.12;96929.17;107592;1273;44406;-74
2022/03/07 06:05:57;;;;;;;34.20;25.10;;;;;;;-4.29;76.26;96921.94;107546;1273;46836;-73
2022/03/07 06:08:28;;;;;;;34.20;20.70;;;;;;;-4.32;76.19;96919.64;107589;1273;29349;-74
2022/03/07 06:10:59;;;;;;;23.00;13.90;;;;;;;-4.28;75.73;96924.91;107654;1273;43515;-73
2022/03/07 06:13:30;;;;;;;26.80;15.70;;;;;;;-4.29;75.78;96922.54;107590;1273;33410;-73
2022/03/07 06:16:01;;;;;;;29.00;17.50;;;;;;;-4.31;75.32;96923.15;107602;1273;39178;-73
2022/03/07 06:18:33;;;;;;;25.00;13.50;;;;;;;-4.31;75.20;96921.98;107513;1274;49471;-73
2022/03/07 06:21:05;;;;;;;20.30;10.50;;;;;;;-4.31;75.02;96923.39;107560;1273;42057;-74
2022/03/07 06:23:37;;;;;;;23.70;13.40;;;;;;;-4.32;74.58;96932.30;107520;1273;54577;-73
2022/03/07 06:26:08;;;;;;;26.60;14.90;;;;;;;-4.30;74.83;96937.50;107492;1274;56917;-74
2022/03/07 06:28:39;;;;;;;36.10;25.30;;;;;;;-4.28;74.69;96936.13;107562;1273;44069;-73
2022/03/07 06:31:10;;;;;;;35.50;20.40;;;;;;;-4.24;74.59;96937.05;107520;1274;40389;-73
2022/03/07 06:33:41;;;;;;;19.70;13.50;;;;;;;-4.21;74.17;96934.30;107516;1273;35537;-73
2022/03/07 06:36:12;;;;;;;31.50;21.10;;;;;;;-4.19;73.41;96941.77;107532;1274;43220;-73
2022/03/07 06:38:43;;;;;;;33.70;22.40;;;;;;;-4.13;73.57;96938.60;107608;1273;43484;-74
2022/03/07 06:41:14;;;;;;;22.60;15.00;;;;;;;-4.09;73.37;96940.69;107631;1275;43150;-73
2022/03/07 06:43:45;;;;;;;27.90;18.20;;;;;;;-4.07;72.46;96943.50;107544;1274;42198;-73
2022/03/07 06:46:16;;;;;;;26.80;16.60;;;;;;;-4.03;71.87;96945.02;107611;1273;33195;-73
2022/03/07 06:48:47;;;;;;;19.70;10.70;;;;;;;-3.99;71.69;96952.04;107597;1275;39209;-73
2022/03/07 06:51:18;;;;;;;27.60;18.60;;;;;;;-3.98;70.81;96954.33;107522;1275;42311;-73
2022/03/07 06:53:49;;;;;;;29.70;19.70;;;;;;;-3.98;71.31;96956.08;107628;1272;42144;-74
2022/03/07 06:56:20;;;;;;;29.30;20.30;;;;;;;-3.94;70.94;96953.25;107536;1275;34631;-74
2022/03/07 06:58:51;;;;;;;30.60;19.80;;;;;;;-3.88;70.96;96951.91;107453;1274;34832;-74
2022/03/07 07:01:22;;;;;;;33.70;22.20;;;;;;;-3.84;70.33;96949.00;107557;1273;34133;-73
2022/03/07 07:03:53;;;;;;;29.70;19.40;;;;;;;-3.86;69.91;96954.69;107554;1275;32545;-74
2022/03/07 07:06:24;;;;;;;26.00;16.20;;;;;;;-3.85;69.80;96957.08;107586;1274;38868;-74
2022/03/07 07:08:55;;;;;;;27.60;18.80;;;;;;;-3.84;69.61;96951.52;107534;1273;59445;-73
2022/03/07 07:11:26;;;;;;;21.50;11.80;;;;;;;-3.81;69.50;96954.76;107578;1273;34536;-73
2022/03/07 07:13:57;;;;;;;27.70;19.20;;;;;;;-3.80;69.13;96955.58;107548;1274;35249;-74
2022/03/07 07:16:28;;;;;;;28.30;18.70;;;;;;;-3.77;69.44;96953.97;107544;1273;42685;-73
2022/03/07 07:18:59;;;;;;;27.70;19.40;;;;;;;-3.70;69.41;96954.41;107507;1274;44402;-74
2022/03/07 07:21:30;;;;;;;29.60;21.00;;;;;;;-3.61;69.45;96957.48;107436;1274;59640;-73
2022/03/07 07:24:01;;;;;;;27.50;18.00;;;;;;;-3.53;69.06;96956.89;107626;1273;30356;-73
2022/03/07 07:26:32;;;;;;;26.70;14.70;;;;;;;-3.50;68.71;96962.24;107550;1273;43655;-73
2022/03/07 07:29:03;;;;;;;31.50;21.20;;;;;;;-3.46;68.72;96958.75;107568;1273;37734;-74
2022/03/07 07:31:34;;;;;;;26.00;18.30;;;;;;;-3.38;68.46;96963.22;107501;1273;40405;-73
2022/03/07 07:34:05;;;;;;;31.90;20.90;;;;;;;-3.37;68.00;96960.14;107552;1273;42058;-74
2022/03/07 07:36:36;;;;;;;29.80;18.60;;;;;;;-3.39;68.29;96965.85;107604;1273;38966;-73
2022/03/07 07:39:07;;;;;;;30.70;20.40;;;;;;;-3.30;68.61;96970.02;107619;1274;32378;-73
2022/03/07 07:41:38;;;;;;;24.20;15.70;;;;;;;-3.32;68.49;96967.25;107566;1273;42375;-74
2022/03/07 07:44:09;;;;;;;32.50;20.80;;;;;;;-3.41;68.19;96966.70;107548;1272;39420;-73
2022/03/07 07:46:40;;;;;;;30.00;19.60;;;;;;;-3.41;68.61;96965.48;107552;1273;47153;-73
2022/03/07 07:49:12;;;;;;;30.00;19.30;;;;;;;-3.40;68.36;96963.36;107562;1273;50253;-73
2022/03/07 07:52:21;;;;;;;35.00;22.30;;;;;;;-3.36;68.52;96969.77;107589;1273;34669;-73
2022/03/07 07:55:10;;;;;;;29.20;21.20;;;;;;;-3.35;68.61;96967.05;107553;1273;41362;-73
2022/03/07 07:57:41;;;;;;;23.20;15.60;;;;;;;-3.36;68.85;96967.16;107582;1273;49909;-73
2022/03/07 08:00:15;;;;;;;29.70;18.70;;;;;;;-3.42;69.01;96968.06;107616;1273;30428;-73
2022/03/07 08:02:47;;;;;;;25.90;18.10;;;;;;;-3.49;69.23;96967.80;107660;1273;34184;-73
2022/03/07 08:05:19;;;;;;;27.00;18.70;;;;;;;-3.58;69.14;96961.14;107643;1273;34457;-73
2022/03/07 08:07:50;;;;;;;30.30;20.80;;;;;;;-3.62;69.46;96962.34;107583;1273;31033;-74
2022/03/07 08:10:21;;;;;;;29.10;21.00;;;;;;;-3.54;69.78;96961.70;107579;1273;42344;-74
2022/03/07 08:12:52;;;;;;;28.20;20.40;;;;;;;-3.51;69.70;96959.64;107588;1273;36427;-74
2022/03/07 08:15:23;;;;;;;31.90;21.00;;;;;;;-3.51;69.36;96964.27;107590;1273;35948;-74
2022/03/07 08:17:54;;;;;;;27.00;17.50;;;;;;;-3.48;69.64;96963.20;107561;1273;42413;-74
2022/03/07 08:20:27;;;;;;;31.40;18.80;;;;;;;-3.46;69.66;96966.05;107583;1273;39945;-73
2022/03/07 08:22:58;;;;;;;32.20;21.50;;;;;;;-3.42;69.67;96961.77;107535;1273;49490;-74
2022/03/07 08:25:29;;;;;;;26.90;16.50;;;;;;;-3.31;69.82;96962.16;107581;1273;33125;-73
2022/03/07 08:28:00;;;;;;;25.00;15.30;;;;;;;-3.25;69.76;96957.63;107597;1273;33051;-74
2022/03/07 08:30:33;;;;;;;32.90;22.00;;;;;;;-3.25;69.76;96957.02;107589;1272;36289;-73
2022/03/07 08:33:04;;;;;;;26.70;17.80;;;;;;;-3.28;69.61;96962.54;107539;1274;29607;-73
2022/03/07 08:35:35;;;;;;;23.30;15.70;;;;;;;-3.31;69.78;96957.89;107452;1273;223844;-73
2022/03/07 08:38:06;;;;;;;31.10;21.30;;;;;;;-3.41;70.10;96957.45;107502;1274;52999;-73
2022/03/07 08:40:37;;;;;;;31.30;23.30;;;;;;;-3.49;70.22;96958.35;107500;1273;42790;-73
2022/03/07 08:43:08;;;;;;;31.80;21.00;;;;;;;-3.43;70.68;96960.77;107563;1274;33942;-73
2022/03/07 08:45:39;;;;;;;39.40;26.60;;;;;;;-3.38;71.11;96958.01;107525;1273;50944;-73
2022/03/07 08:48:10;;;;;;;33.20;23.80;;;;;;;-3.34;71.27;96958.57;107522;1273;40022;-73
2022/03/07 08:50:41;;;;;;;35.30;25.00;;;;;;;-3.11;71.80;96955.27;107513;1275;41786;-73
2022/03/07 08:53:11;;;;;;;33.80;23.50;;;;;;;-2.78;71.85;96957.15;107547;1274;40509;-73
2022/03/07 08:55:43;;;;;;;25.50;16.00;;;;;;;-2.72;71.34;96952.58;107525;1273;41457;-73
2022/03/07 08:58:14;;;;;;;36.60;24.70;;;;;;;-2.77;71.48;96950.83;107544;1274;36525;-74
2022/03/07 09:00:45;;;;;;;42.40;28.20;;;;;;;-2.65;71.48;96949.77;107568;1273;50230;-73
2022/03/07 09:03:15;;;;;;;27.70;21.20;;;;;;;-2.43;71.40;96950.55;107634;1274;33928;-74
2022/03/07 09:05:46;;;;;;;34.90;25.00;;;;;;;-2.24;70.59;96944.58;107612;1274;34999;-73
2022/03/07 09:08:17;;;;;;;35.90;22.10;;;;;;;-1.94;70.68;96943.23;107629;1274;40500;-73
2022/03/07 09:10:48;;;;;;;55.50;29.20;;;;;;;-1.80;69.86;96944.79;107601;1274;34739;-74
2022/03/07 09:13:19;;;;;;;23.70;15.60;;;;;;;-1.95;69.50;96945.73;107515;1273;71391;-74
2022/03/07 09:15:50;;;;;;;41.90;25.40;;;;;;;-1.90;69.55;96945.93;107565;1273;46092;-74
2022/03/07 09:18:21;;;;;;;29.90;17.80;;;;;;;-1.72;69.33;96945.27;107588;1273;37786;-74
2022/03/07 09:20:52;;;;;;;34.60;23.50;;;;;;;-1.61;68.38;96946.84;107598;1273;49457;-74
2022/03/07 09:23:23;;;;;;;33.20;23.20;;;;;;;-1.24;68.71;96941.19;107530;1273;44123;-73
2022/03/07 09:25:54;;;;;;;25.90;16.40;;;;;;;-1.03;68.16;96937.96;107609;1273;32729;-73
2022/03/07 09:28:25;;;;;;;31.80;22.80;;;;;;;-1.25;67.48;96929.77;107542;1273;42690;-73
2022/03/07 09:30:56;;;;;;;23.10;14.40;;;;;;;-1.38;67.73;96928.86;107513;1273;48297;-73
2022/03/07 09:33:26;;;;;;;56.40;23.60;;;;;;;-1.51;67.01;96926.13;107548;1273;40010;-73
2022/03/07 09:35:58;;;;;;;74.10;35.10;;;;;;;-1.85;67.13;96929.92;107512;1273;93315;-73
2022/03/07 09:38:29;;;;;;;29.30;20.10;;;;;;;-1.91;68.00;96932.13;107583;1273;42006;-73
2022/03/07 09:41:00;;;;;;;27.00;18.50;;;;;;;-1.85;67.94;96931.35;107633;1273;32844;-74
2022/03/07 09:43:32;;;;;;;26.20;16.10;;;;;;;-1.92;67.62;96934.06;107680;1273;66544;-73
2022/03/07 09:46:03;;;;;;;24.60;17.50;;;;;;;-2.04;67.61;96939.60;107535;1273;43675;-73
2022/03/07 09:48:34;;;;;;;29.70;22.00;;;;;;;-2.15;67.81;96942.56;107546;1273;40803;-73
2022/03/07 09:51:05;;;;;;;31.00;22.40;;;;;;;-2.03;68.45;96944.40;107543;1275;43871;-74
2022/03/07 09:53:37;;;;;;;31.40;21.90;;;;;;;-1.89;68.60;96943.33;107562;1274;60868;-74
2022/03/07 09:56:08;;;;;;;30.70;20.00;;;;;;;-1.79;68.54;96942.88;107570;1275;42546;-73
2022/03/07 09:58:39;;;;;;;33.70;22.10;;;;;;;-1.78;68.24;96945.44;107598;1273;36278;-73
2022/03/07 10:01:13;;;;;;;28.10;20.10;;;;;;;-1.84;67.91;96942.04;107577;1275;32731;-73
2022/03/07 10:03:44;;;;;;;31.10;20.40;;;;;;;-1.82;67.84;96942.89;107646;1274;39020;-73
2022/03/07 10:06:17;;;;;;;29.40;19.80;;;;;;;-1.70;68.22;96940.75;107587;1273;67542;-74
2022/03/07 10:08:56;;;;;;;31.60;22.40;;;;;;;-1.69;68.19;96944.30;107695;1273;37839;-73
2022/03/07 10:11:28;;;;;;;21.00;14.90;;;;;;;-1.65;68.31;96945.78;107558;1274;40159;-74
2022/03/07 10:14:01;;;;;;;31.40;21.80;;;;;;;-1.59;68.48;96949.36;107526;1274;40864;-74
2022/03/07 10:16:43;;;;;;;29.00;20.80;;;;;;;-1.58;68.39;96949.25;107544;1273;60141;-73
2022/03/07 10:19:15;;;;;;;29.30;20.70;;;;;;;-1.46;68.81;96947.86;107601;1274;39860;-73
2022/03/07 10:21:52;;;;;;;26.20;19.10;;;;;;;-1.29;68.59;96946.77;107623;1273;42540;-73
2022/03/07 10:24:34;;;;;;;30.10;21.00;;;;;;;-0.99;68.78;96942.25;107603;1273;46681;-73
2022/03/07 10:27:05;;;;;;;31.00;19.50;;;;;;;-0.89;67.68;96943.52;107613;1273;39928;-74
2022/03/07 10:29:47;;;;;;;31.00;20.30;;;;;;;-1.01;67.59;96942.00;107580;1273;39860;-73
2022/03/07 10:32:20;;;;;;;18.30;11.70;;;;;;;-1.11;67.10;96941.42;107529;1273;49628;-74
2022/03/07 10:34:51;;;;;;;26.40;19.30;;;;;;;-1.43;66.56;96946.88;107520;1273;42378;-73
2022/03/07 10:37:33;;;;;;;22.10;16.20;;;;;;;-1.49;67.42;96942.98;107588;1273;31771;-73
2022/03/07 10:40:18;;;;;;;25.00;17.30;;;;;;;-1.59;66.76;96944.34;107593;1273;45383;-73
2022/03/07 10:42:51;;;;;;;21.20;15.60;;;;;;;-1.60;68.01;96943.05;107517;1273;36271;-74
2022/03/07 10:45:23;;;;;;;27.30;19.30;;;;;;;-1.49;67.73;96943.41;107637;1273;41399;-73
2022/03/07 10:47:57;;;;;;;27.20;19.40;;;;;;;-1.38;67.95;96940.83;107595;1273;31804;-73
2022/03/07 10:50:30;;;;;;;26.30;18.10;;;;;;;-1.21;68.27;96938.52;107598;1273;42351;-73
2022/03/07 10:53:05;;;;;;;24.80;17.10;;;;;;;-1.09;68.00;96936.23;107613;1273;40373;-73
2022/03/07 10:55:38;;;;;;;24.50;16.10;;;;;;;-1.15;66.86;96939.14;107578;1273;45818;-73
2022/03/07 10:58:12;;;;;;;27.70;20.00;;;;;;;-1.36;66.75;96945.46;107594;1273;43350;-73
2022/03/07 11:00:55;;;;;;;26.10;19.00;;;;;;;-1.42;67.51;96944.31;107638;1273;30346;-74
2022/03/07 11:03:28;;;;;;;23.30;16.10;;;;;;;-1.52;67.09;96945.20;107518;1273;37597;-74
2022/03/07 11:06:01;;;;;;;31.70;20.30;;;;;;;-1.71;67.03;96942.91;107569;1273;33834;-73
2022/03/07 11:08:32;;;;;;;31.00;21.20;;;;;;;-1.77;67.95;96939.23;107572;1273;43712;-73
2022/03/07 11:11:03;;;;;;;21.50;14.00;;;;;;;-1.70;68.46;96940.77;107608;1273;34737;-73
2022/03/07 11:13:34;;;;;;;29.50;21.50;;;;;;;-1.69;68.10;96938.04;107541;1273;43739;-73
2022/03/07 11:16:06;;;;;;;28.60;20.80;;;;;;;-1.64;68.18;96939.95;107544;1273;42747;-74
2022/03/07 11:18:37;;;;;;;30.20;19.50;;;;;;;-1.44;68.53;96936.04;107564;1273;42458;-73
2022/03/07 11:21:09;;;;;;;27.40;18.40;;;;;;;-1.23;68.29;96932.63;107580;1273;44092;-73
2022/03/07 11:23:41;;;;;;;25.60;19.10;;;;;;;-1.06;67.89;96932.44;107551;1273;39151;-74
2022/03/07 11:26:12;;;;;;;27.90;19.10;;;;;;;-1.08;66.89;96935.04;107648;1273;35486;-73
2022/03/07 11:28:44;;;;;;;25.40;19.10;;;;;;;-1.02;66.87;96928.08;107600;1273;50080;-73
2022/03/07 11:31:23;;;;;;;23.50;17.00;;;;;;;-1.03;66.41;96930.31;107590;1275;39003;-74